Time;durP1;ratioP1;P1;durP2;ratioP2;P2;SDS_P1;SDS_P2;PMS_P1;PMS_P2;Temp;Humidity;BMP_temperature;BMP_pressure;BME280_temperature;BME280_humidity;BME280_pressure;Samples;Min_cycle;Max_cycle;Signal;HPM_P1;HPM_P2
2023/09/19 00:02:59;;;;;;;1.67;0.40;;;18.40;98.10;;;;;;4839362;29;20043;-81
2023/09/19 00:05:34;;;;;;;1.27;0.30;;;18.40;98.10;;;;;;4837450;29;20316;-80
2023/09/19 00:11:49;;;;;;;4.20;0.75;;;18.30;98.20;;;;;;4852898;29;20053;-79
2023/09/19 00:14:24;;;;;;;2.47;0.50;;;18.30;98.30;;;;;;4837509;29;20041;-81
2023/09/19 00:17:11;;;;;;;1.95;0.52;;;18.30;98.40;;;;;;4852870;29;20053;-79
2023/09/19 00:19:46;;;;;;;2.17;0.50;;;18.30;98.40;;;;;;4852937;29;20049;-79
2023/09/19 00:22:33;;;;;;;1.70;0.68;;;18.30;98.60;;;;;;4868490;29;20272;-80
2023/09/19 00:25:06;;;;;;;1.10;0.40;;;18.20;98.90;;;;;;4870809;29;20097;-80
2023/09/19 00:28:09;;;;;;;1.52;0.50;;;18.20;98.90;;;;;;4851714;29;20222;-80
2023/09/19 00:30:38;;;;;;;1.45;0.43;;;18.10;99.30;;;;;;4836311;29;20110;-80
2023/09/19 05:59:39;;;;;;;3.63;1.33;;;16.00;99.90;;;;;;5796855;23;20024;-78
2023/09/19 06:02:06;;;;;;;4.37;1.27;;;15.90;99.90;;;;;;4920705;29;20064;-77
2023/09/19 06:04:32;;;;;;;4.30;1.30;;;15.80;99.90;;;;;;4926106;29;20054;-81
2023/09/19 06:07:10;;;;;;;2.95;1.50;;;15.80;99.90;;;;;;4909380;29;20317;-81
2023/09/19 06:09:42;;;;;;;4.97;1.38;;;15.80;99.90;;;;;;4909365;29;20107;-79
2023/09/19 06:12:12;;;;;;;3.65;1.50;;;15.90;99.90;;;;;;4926737;29;20194;-78
2023/09/19 06:14:40;;;;;;;3.63;1.40;;;15.90;99.90;;;;;;4909695;29;20024;-77
2023/09/19 06:17:12;;;;;;;4.00;1.02;;;15.80;99.90;;;;;;4926133;29;20043;-76
2023/09/19 06:19:37;;;;;;;3.90;1.60;;;15.80;99.90;;;;;;4907528;29;20029;-76
2023/09/19 06:22:03;;;;;;;2.85;1.40;;;15.80;99.90;;;;;;4907116;29;20203;-75
2023/09/19 06:24:29;;;;;;;3.10;1.35;;;15.70;99.90;;;;;;4907372;29;20024;-75
2023/09/19 06:26:55;;;;;;;3.22;1.30;;;15.70;99.90;;;;;;4907827;29;20290;-75
2023/09/19 06:29:23;;;;;;;3.20;1.10;;;15.80;99.90;;;;;;4907121;29;20032;-75
2023/09/19 06:31:48;;;;;;;5.68;1.42;;;15.80;99.90;;;;;;4907581;29;20048;-75
2023/09/19 06:34:15;;;;;;;4.05;1.30;;;15.90;99.90;;;;;;4916934;29;20305;-76
2023/09/19 06:36:41;;;;;;;2.67;1.00;;;16.00;99.90;;;;;;4926267;29;20040;-76
2023/09/19 06:39:10;;;;;;;3.90;1.45;;;16.00;99.90;;;;;;4925640;29;20040;-78
2023/09/19 06:41:39;;;;;;;3.58;1.10;;;16.10;99.90;;;;;;4909268;29;20075;-77
2023/09/19 06:44:10;;;;;;;2.95;1.17;;;16.20;99.90;;;;;;4893784;29;20110;-76
2023/09/19 06:46:39;;;;;;;4.43;1.30;;;16.20;99.90;;;;;;4926085;29;20355;-76
2023/09/19 06:49:06;;;;;;;4.38;1.15;;;16.40;99.90;;;;;;4925458;29;20040;-75
2023/09/19 06:51:34;;;;;;;3.80;1.10;;;16.50;99.90;;;;;;4926380;29;20047;-76
2023/09/19 06:54:01;;;;;;;3.65;1.20;;;16.70;99.90;;;;;;4927192;29;20221;-77
2023/09/19 06:56:27;;;;;;;3.95;1.20;;;16.70;99.90;;;;;;4913368;29;20028;-75
2023/09/19 06:58:52;;;;;;;4.55;1.35;;;16.80;99.90;;;;;;4917238;29;20096;-76
2023/09/19 07:01:18;;;;;;;2.90;1.30;;;16.80;99.90;;;;;;4916977;29;20063;-76
2023/09/19 07:03:45;;;;;;;5.68;1.35;;;17.00;99.90;;;;;;4926240;29;20361;-77
2023/09/19 07:06:11;;;;;;;3.70;1.30;;;17.10;99.90;;;;;;4925679;29;20044;-77
2023/09/19 07:08:38;;;;;;;2.97;1.20;;;17.20;99.90;;;;;;4914543;29;20198;-76
2023/09/19 07:11:05;;;;;;;7.90;1.63;;;17.30;99.90;;;;;;4890120;29;20032;-79
2023/09/19 07:13:35;;;;;;;7.03;1.10;;;17.50;99.90;;;;;;4890924;29;20032;-77
2023/09/19 07:16:00;;;;;;;3.35;1.13;;;17.60;99.90;;;;;;4906678;29;20118;-78
2023/09/19 07:18:26;;;;;;;2.55;1.10;;;17.70;99.90;;;;;;4890207;29;20309;-78
2023/09/19 07:21:01;;;;;;;3.90;1.10;;;17.80;99.90;;;;;;4893978;29;20032;-78
2023/09/19 07:23:27;;;;;;;3.53;1.13;;;17.80;99.90;;;;;;4926280;29;20096;-80
2023/09/19 07:25:57;;;;;;;4.97;1.50;;;17.80;99.90;;;;;;4893418;29;20028;-77
2023/09/19 07:28:22;;;;;;;2.97;1.00;;;17.80;99.90;;;;;;4925643;29;20024;-80
2023/09/19 07:30:48;;;;;;;4.95;1.45;;;17.80;99.90;;;;;;4926174;29;20028;-77
2023/09/19 07:33:14;;;;;;;5.25;2.03;;;18.00;99.90;;;;;;4908357;29;20040;-77
2023/09/19 07:35:40;;;;;;;5.13;1.63;;;18.10;99.90;;;;;;4901556;29;20021;-79
2023/09/19 07:38:06;;;;;;;5.20;1.25;;;18.10;99.90;;;;;;4890015;29;20052;-79
2023/09/19 07:40:32;;;;;;;4.70;1.45;;;18.00;99.90;;;;;;4907008;29;20107;-79
2023/09/19 07:43:01;;;;;;;3.90;1.17;;;18.00;99.90;;;;;;4874400;29;20053;-81
2023/09/19 07:45:29;;;;;;;2.95;1.05;;;18.00;99.90;;;;;;4892976;29;20020;-79
2023/09/19 07:47:55;;;;;;;7.90;1.05;;;18.10;99.90;;;;;;4926054;29;20028;-77
2023/09/19 07:50:22;;;;;;;3.63;0.95;;;18.10;99.90;;;;;;4928197;29;20356;-79
2023/09/19 07:52:50;;;;;;;5.20;0.93;;;18.10;99.90;;;;;;4912869;29;20285;-78
2023/09/19 07:55:17;;;;;;;2.60;0.80;;;18.10;99.90;;;;;;4929177;29;20099;-79
2023/09/19 07:57:43;;;;;;;2.40;0.73;;;18.30;99.90;;;;;;4929681;29;20231;-81
2023/09/19 08:00:14;;;;;;;5.38;1.05;;;18.40;99.90;;;;;;4928254;29;20048;-78
2023/09/19 08:02:41;;;;;;;5.97;2.10;;;18.40;99.90;;;;;;4920674;29;20052;-79
2023/09/19 08:05:11;;;;;;;5.40;1.08;;;18.50;99.90;;;;;;4893083;29;20103;-79
2023/09/19 08:07:38;;;;;;;2.53;0.85;;;18.50;99.90;;;;;;4922154;29;20019;-79
2023/09/19 08:10:12;;;;;;;4.47;1.13;;;18.60;99.90;;;;;;4928586;29;20258;-78
2023/09/19 08:12:46;;;;;;;3.50;1.08;;;18.70;99.90;;;;;;4929171;29;20258;-79
2023/09/19 08:15:21;;;;;;;4.55;1.08;;;18.80;99.90;;;;;;4896151;29;20384;-79
2023/09/19 08:17:48;;;;;;;3.25;1.00;;;18.90;99.90;;;;;;4928910;29;20144;-76
2023/09/19 08:20:20;;;;;;;2.33;0.80;;;18.90;99.90;;;;;;4895806;29;20043;-79
2023/09/19 08:22:58;;;;;;;2.58;0.90;;;19.00;99.90;;;;;;4928882;29;20044;-78
2023/09/19 08:25:39;;;;;;;3.08;0.80;;;19.10;99.70;;;;;;4928649;29;20068;-77
2023/09/19 08:29:06;;;;;;;2.15;0.80;;;19.10;99.90;;;;;;4892201;29;20032;-76
2023/09/19 08:31:33;;;;;;;2.17;0.73;;;19.20;98.90;;;;;;4894807;29;20067;-77
2023/09/19 08:34:00;;;;;;;2.88;1.08;;;19.30;98.40;;;;;;4911832;29;20101;-79
2023/09/19 08:36:31;;;;;;;2.33;0.65;;;19.50;98.40;;;;;;4927836;29;20024;-79
2023/09/19 08:38:57;;;;;;;2.80;0.82;;;19.60;97.70;;;;;;4904824;29;20330;-78
2023/09/19 08:41:23;;;;;;;3.58;0.80;;;19.50;97.40;;;;;;4909023;29;20037;-79
2023/09/19 08:43:50;;;;;;;3.17;0.80;;;19.40;97.50;;;;;;4909436;29;20047;-78
2023/09/19 08:46:19;;;;;;;3.70;1.00;;;19.40;97.60;;;;;;4892186;29;20024;-78
2023/09/19 08:49:01;;;;;;;2.33;0.93;;;19.50;98.40;;;;;;4909475;29;20445;-75
2023/09/19 08:51:45;;;;;;;3.25;1.00;;;19.70;97.20;;;;;;4892299;29;20028;-78
2023/09/19 08:54:41;;;;;;;2.75;0.60;;;19.80;96.80;;;;;;4892542;29;20388;-78
2023/09/19 08:57:17;;;;;;;2.95;1.20;;;19.90;96.30;;;;;;4926939;29;20032;-79
2023/09/19 09:03:25;;;;;;;1.65;0.65;;;19.90;94.70;;;;;;4908569;29;20036;-81
2023/09/19 09:06:04;;;;;;;2.50;0.68;;;19.80;94.20;;;;;;4909236;29;20052;-78
2023/09/19 09:08:34;;;;;;;3.15;0.80;;;20.00;94.70;;;;;;4884712;29;20033;-79
2023/09/19 09:10:59;;;;;;;3.47;0.85;;;20.10;93.80;;;;;;4908043;29;20036;-79
2023/09/19 09:13:26;;;;;;;1.70;0.60;;;20.40;94.50;;;;;;4908019;29;20031;-79
2023/09/19 09:15:53;;;;;;;2.53;0.70;;;20.60;93.00;;;;;;4909487;29;20035;-82
2023/09/19 09:18:20;;;;;;;3.22;0.70;;;20.60;92.40;;;;;;4892113;29;20040;-80
2023/09/19 09:20:55;;;;;;;2.72;0.80;;;20.80;92.50;;;;;;4909467;29;20115;-80
2023/09/19 09:23:21;;;;;;;2.63;0.95;;;20.70;91.80;;;;;;4909083;29;20041;-80
2023/09/19 09:25:56;;;;;;;3.15;0.80;;;20.90;91.40;;;;;;4910099;29;20056;-79
2023/09/19 09:28:24;;;;;;;2.60;0.70;;;21.10;90.30;;;;;;4908586;29;20036;-77
2023/09/19 09:30:50;;;;;;;6.50;0.98;;;21.30;88.50;;;;;;4909410;29;20028;-79
2023/09/19 09:33:18;;;;;;;2.58;0.80;;;21.40;89.00;;;;;;4925632;29;20099;-80
2023/09/19 09:36:02;;;;;;;2.17;0.95;;;21.30;87.40;;;;;;4894947;29;20231;-77
2023/09/19 09:38:50;;;;;;;4.13;0.80;;;21.50;84.70;;;;;;4910394;29;20135;-78
2023/09/19 09:41:27;;;;;;;2.75;0.93;;;21.60;81.80;;;;;;4899753;29;20052;-80
2023/09/19 09:43:53;;;;;;;2.63;0.70;;;21.40;82.00;;;;;;4908368;29;20104;-77
2023/09/19 09:49:11;;;;;;;2.55;0.77;;;21.40;81.30;;;;;;4891971;29;20148;-80
2023/09/19 09:51:39;;;;;;;2.22;0.75;;;21.40;81.00;;;;;;4872164;29;20041;-80
2023/09/19 09:54:15;;;;;;;3.47;0.73;;;21.40;81.50;;;;;;4872016;29;20037;-78
2023/09/19 09:57:01;;;;;;;2.75;1.13;;;21.70;80.20;;;;;;4872155;29;20045;-77
2023/09/19 09:59:53;;;;;;;1.60;0.55;;;21.50;80.10;;;;;;4888510;29;20071;-79
2023/09/19 10:02:24;;;;;;;3.05;0.80;;;21.40;80.40;;;;;;4857190;29;20289;-79
2023/09/19 10:04:51;;;;;;;2.80;0.90;;;21.60;79.80;;;;;;4835559;29;20041;-77
2023/09/19 10:07:37;;;;;;;3.65;0.77;;;21.70;78.90;;;;;;4851795;29;20041;-78
2023/09/19 10:10:15;;;;;;;1.70;0.73;;;21.80;77.20;;;;;;4869027;29;20033;-78
2023/09/19 10:12:46;;;;;;;3.35;0.93;;;21.90;78.10;;;;;;4868658;29;20057;-76
2023/09/19 10:15:15;;;;;;;4.13;0.80;;;22.30;77.50;;;;;;4868619;29;20083;-79
2023/09/19 10:17:45;;;;;;;3.03;0.82;;;22.20;78.00;;;;;;4853176;29;20041;-77
2023/09/19 10:20:33;;;;;;;3.17;0.80;;;22.50;77.90;;;;;;4849958;29;20315;-78
2023/09/19 10:23:13;;;;;;;3.58;0.75;;;22.80;77.00;;;;;;4863799;29;20106;-75
2023/09/19 10:25:46;;;;;;;3.70;0.80;;;22.80;76.00;;;;;;4870857;29;20072;-79
2023/09/19 10:28:14;;;;;;;2.10;0.80;;;22.60;74.70;;;;;;4870509;29;20109;-76
2023/09/19 10:30:44;;;;;;;3.00;0.80;;;22.20;75.40;;;;;;4869599;29;20029;-77
2023/09/19 10:33:15;;;;;;;2.72;0.70;;;21.90;75.90;;;;;;4870214;29;20032;-78
2023/09/19 10:35:45;;;;;;;2.63;0.88;;;21.70;77.30;;;;;;4870522;29;20029;-78
2023/09/19 10:38:14;;;;;;;2.75;0.90;;;21.60;78.00;;;;;;4853724;29;20029;-77
2023/09/19 10:40:43;;;;;;;2.28;0.80;;;21.60;78.20;;;;;;4870412;29;20037;-78
2023/09/19 10:43:12;;;;;;;1.67;0.60;;;21.90;78.20;;;;;;4870612;29;20345;-74
2023/09/19 10:45:40;;;;;;;3.35;0.80;;;22.00;77.40;;;;;;4880521;29;20085;-77
2023/09/19 10:48:07;;;;;;;;;;;22.10;76.80;;;;;;4873148;29;20028;-80
2023/09/19 10:50:59;;;;;;;1.77;0.63;;;22.30;76.00;;;;;;4888568;29;19908;-78
2023/09/19 10:53:28;;;;;;;3.10;0.80;;;22.40;76.40;;;;;;4900795;29;20318;-78
2023/09/19 10:56:09;;;;;;;4.07;0.57;;;22.40;75.40;;;;;;4904301;29;20052;-80
2023/09/19 10:58:38;;;;;;;2.40;0.80;;;22.60;75.10;;;;;;4869357;29;20052;-77
2023/09/19 11:01:27;;;;;;;3.03;0.70;;;22.90;74.30;;;;;;4879946;29;20049;-80
2023/09/19 11:04:35;;;;;;;1.85;0.60;;;23.30;74.20;;;;;;4872162;29;20033;-80
2023/09/19 11:10:08;;;;;;;1.70;0.50;;;24.90;69.00;;;;;;4799509;29;20104;-81
2023/09/19 11:12:38;;;;;;;4.80;0.90;;;25.00;69.10;;;;;;4832050;29;20058;-78
2023/09/19 11:15:42;;;;;;;2.58;0.75;;;24.30;69.30;;;;;;4832321;29;20074;-79
2023/09/19 11:18:40;;;;;;;2.55;0.52;;;23.40;71.10;;;;;;4847868;29;20073;-82
2023/09/19 11:21:33;;;;;;;1.80;0.70;;;23.50;72.60;;;;;;4834178;29;20351;-80
2023/09/19 11:24:22;;;;;;;2.80;0.52;;;24.40;70.30;;;;;;4844509;29;20297;-79
2023/09/19 11:26:48;;;;;;;1.95;0.50;;;24.90;68.80;;;;;;4853281;29;20046;-77
2023/09/19 11:29:28;;;;;;;1.60;0.50;;;25.50;67.80;;;;;;4852869;29;20030;-78
2023/09/19 11:32:05;;;;;;;2.05;0.50;;;26.30;65.20;;;;;;4853662;29;20057;-78
2023/09/19 11:34:38;;;;;;;3.35;0.70;;;26.90;63.20;;;;;;4823775;29;20404;-78
2023/09/19 11:37:13;;;;;;;2.08;0.60;;;27.20;63.00;;;;;;4868726;29;20104;-78
2023/09/19 11:39:59;;;;;;;2.58;0.50;;;27.00;62.20;;;;;;4921435;29;20045;-77
2023/09/19 11:42:57;;;;;;;2.05;0.40;;;27.10;61.30;;;;;;4916671;24;20040;-79
2023/09/19 11:45:45;;;;;;;2.65;0.63;;;27.50;59.70;;;;;;4907776;29;20048;-78
2023/09/19 11:48:15;;;;;;;1.63;0.57;;;27.90;59.20;;;;;;4915603;29;20095;-79
2023/09/19 11:50:44;;;;;;;3.08;0.60;;;27.50;58.90;;;;;;4894451;29;20036;-77
2023/09/19 11:53:19;;;;;;;3.58;0.63;;;27.40;58.70;;;;;;4894059;29;20043;-81
2023/09/19 11:55:46;;;;;;;3.22;1.08;;;27.30;59.00;;;;;;4903627;29;20045;-77
2023/09/19 11:58:22;;;;;;;1.20;0.40;;;28.00;58.40;;;;;;4909665;29;20224;-79
2023/09/19 12:00:58;;;;;;;3.38;0.77;;;28.50;57.70;;;;;;4900573;29;20091;-78
2023/09/19 12:03:30;;;;;;;2.80;0.57;;;28.70;57.60;;;;;;4915692;29;20114;-78
2023/09/19 12:05:57;;;;;;;1.58;0.47;;;29.00;57.50;;;;;;4948720;29;20112;-77
2023/09/19 12:08:23;;;;;;;2.40;0.50;;;28.60;57.80;;;;;;4901662;29;20297;-76
2023/09/19 12:10:50;;;;;;;3.72;0.50;;;28.80;56.60;;;;;;4912078;29;20025;-77
2023/09/19 12:13:20;;;;;;;1.90;0.40;;;28.80;56.30;;;;;;4925001;29;20043;-77
2023/09/19 12:15:49;;;;;;;1.50;0.50;;;28.40;56.80;;;;;;4912461;29;20051;-76
2023/09/19 12:18:37;;;;;;;2.17;0.75;;;28.40;57.20;;;;;;4929358;29;20020;-78
2023/09/19 12:21:04;;;;;;;3.28;0.50;;;29.00;57.20;;;;;;4912527;29;20347;-78
2023/09/19 12:23:30;;;;;;;4.40;0.38;;;30.10;56.80;;;;;;4928539;29;20079;-77
2023/09/19 12:25:57;;;;;;;1.75;0.65;;;31.00;56.00;;;;;;4896901;29;20020;-79
2023/09/19 12:28:26;;;;;;;1.33;0.45;;;31.70;55.20;;;;;;4911416;29;20051;-79
2023/09/19 12:30:55;;;;;;;1.35;0.40;;;32.00;53.80;;;;;;4910909;29;20091;-80
2023/09/19 12:33:21;;;;;;;2.53;0.75;;;30.60;54.90;;;;;;4927755;29;20087;-79
2023/09/19 12:35:47;;;;;;;1.77;0.63;;;31.20;55.00;;;;;;4928057;29;20051;-79
2023/09/19 12:38:28;;;;;;;2.28;0.50;;;31.40;54.30;;;;;;4928143;29;20052;-78
2023/09/19 12:41:01;;;;;;;2.05;0.65;;;31.60;54.60;;;;;;4928420;29;20040;-78
2023/09/19 12:43:32;;;;;;;3.80;0.60;;;31.80;54.40;;;;;;4927586;29;20357;-77
2023/09/19 12:46:00;;;;;;;4.03;0.65;;;31.80;52.80;;;;;;4927987;29;20034;-76
2023/09/19 12:48:29;;;;;;;1.70;0.50;;;30.80;54.10;;;;;;4927405;29;20076;-76
2023/09/19 12:51:16;;;;;;;2.60;0.32;;;30.90;55.10;;;;;;4927725;29;20431;-77
2023/09/19 12:53:44;;;;;;;2.67;0.50;;;31.40;54.70;;;;;;4926869;29;20170;-76
2023/09/19 12:56:10;;;;;;;;;;;30.70;54.60;;;;;;4928347;29;20043;-76
2023/09/19 12:59:11;;;;;;;2.38;0.60;;;29.80;55.70;;;;;;4927510;29;19922;-77
2023/09/19 13:01:42;;;;;;;1.95;0.70;;;29.20;57.30;;;;;;4897303;29;20112;-76
2023/09/19 13:04:29;;;;;;;3.47;0.70;;;28.70;58.10;;;;;;4928111;29;20088;-75
2023/09/19 13:07:01;;;;;;;2.42;0.80;;;29.80;56.40;;;;;;4928052;29;20050;-77
2023/09/19 13:09:38;;;;;;;1.85;0.52;;;29.50;55.70;;;;;;4927493;29;20055;-76
2023/09/19 13:12:06;;;;;;;2.42;0.80;;;28.60;56.20;;;;;;4910953;29;20298;-76
2023/09/19 13:14:37;;;;;;;2.17;0.70;;;27.80;58.60;;;;;;4927508;29;20055;-76
2023/09/19 13:17:19;;;;;;;3.17;0.75;;;28.00;57.70;;;;;;4910881;29;20020;-76
2023/09/19 13:19:49;;;;;;;2.22;0.77;;;27.30;58.80;;;;;;4910766;29;20064;-79
2023/09/19 13:22:53;;;;;;;1.80;0.70;;;26.80;59.90;;;;;;4927891;29;20083;-78
2023/09/19 13:25:21;;;;;;;2.47;0.68;;;26.80;60.50;;;;;;4911134;29;20028;-77
2023/09/19 13:27:54;;;;;;;2.33;0.93;;;28.40;60.10;;;;;;4927746;29;20111;-77
2023/09/19 13:30:21;;;;;;;2.58;0.82;;;30.90;56.60;;;;;;4928093;29;20032;-79
2023/09/19 13:32:47;;;;;;;2.40;0.70;;;33.10;53.30;;;;;;4912289;29;20115;-77
2023/09/19 13:35:14;;;;;;;4.05;0.90;;;31.60;53.30;;;;;;4946186;29;20027;-78
2023/09/19 13:37:42;;;;;;;2.45;0.80;;;30.20;54.10;;;;;;4928840;29;20039;-77
2023/09/19 13:40:12;;;;;;;2.00;0.70;;;30.30;54.50;;;;;;4946256;29;20039;-75
2023/09/19 13:42:39;;;;;;;1.30;0.50;;;30.60;53.50;;;;;;4945434;29;20060;-76
2023/09/19 13:45:11;;;;;;;1.70;0.70;;;30.10;54.40;;;;;;4913087;29;20039;-78
2023/09/19 13:47:38;;;;;;;1.33;0.60;;;30.10;55.80;;;;;;4893370;29;20036;-75
2023/09/19 13:50:06;;;;;;;2.55;0.60;;;30.70;55.80;;;;;;4910274;29;20051;-78
2023/09/19 13:52:32;;;;;;;1.88;0.60;;;30.90;54.00;;;;;;4894109;29;20104;-76
2023/09/19 13:54:59;;;;;;;1.50;0.60;;;32.50;53.70;;;;;;4927161;29;20047;-78
2023/09/19 13:57:26;;;;;;;2.38;0.60;;;33.70;51.40;;;;;;4906106;29;20029;-76
2023/09/19 13:59:54;;;;;;;1.63;0.60;;;36.00;48.20;;;;;;4891099;29;20055;-76
2023/09/19 14:02:23;;;;;;;1.83;0.80;;;35.90;48.60;;;;;;4891840;29;20416;-78
2023/09/19 14:04:52;;;;;;;3.55;0.65;;;35.70;48.50;;;;;;4926672;29;20016;-78
2023/09/19 14:07:19;;;;;;;2.58;0.60;;;35.60;47.80;;;;;;4926531;29;20055;-78
2023/09/19 14:09:45;;;;;;;2.17;0.63;;;35.40;48.30;;;;;;4926083;29;20377;-78
2023/09/19 14:12:12;;;;;;;1.48;0.50;;;34.50;49.30;;;;;;4926766;29;20039;-77
2023/09/19 14:14:42;;;;;;;2.72;0.82;;;34.50;49.20;;;;;;4908912;29;20107;-77
2023/09/19 14:17:09;;;;;;;2.15;0.52;;;34.50;49.80;;;;;;4909705;29;20031;-77
2023/09/19 14:19:36;;;;;;;1.37;0.47;;;34.50;49.20;;;;;;4926186;29;20023;-75
2023/09/19 14:22:07;;;;;;;1.98;0.60;;;32.80;49.70;;;;;;4926613;29;20048;-79
2023/09/19 14:24:34;;;;;;;1.65;0.52;;;31.30;51.80;;;;;;4909192;29;20050;-77
2023/09/19 14:27:00;;;;;;;2.03;0.50;;;30.20;54.00;;;;;;4926469;29;20019;-77
2023/09/19 14:29:25;;;;;;;2.83;0.88;;;29.50;54.70;;;;;;4925922;29;20095;-75
2023/09/19 14:31:51;;;;;;;1.95;0.80;;;29.00;56.10;;;;;;4909633;29;20040;-76
2023/09/19 14:34:17;;;;;;;2.33;0.68;;;29.60;54.70;;;;;;4909825;29;20345;-77
2023/09/19 14:36:43;;;;;;;2.50;0.93;;;29.50;53.60;;;;;;4908945;29;20044;-77
2023/09/19 14:39:09;;;;;;;2.90;0.85;;;28.70;53.30;;;;;;4926618;29;20273;-77
2023/09/19 14:41:34;;;;;;;1.80;0.70;;;28.50;54.20;;;;;;4925993;29;20298;-76
2023/09/19 14:44:02;;;;;;;1.75;0.68;;;29.10;54.10;;;;;;4926547;29;20179;-76
2023/09/19 14:46:28;;;;;;;;;;;30.00;53.20;;;;;;4914843;29;20028;-76
2023/09/19 14:48:57;;;;;;;2.15;0.70;;;30.30;52.60;;;;;;4890687;29;19904;-74
2023/09/19 14:51:22;;;;;;;2.50;0.60;;;31.40;52.00;;;;;;4906991;29;20024;-75
2023/09/19 14:53:49;;;;;;;1.40;0.50;;;32.40;50.90;;;;;;4906928;29;20243;-76
2023/09/19 14:56:18;;;;;;;1.40;0.52;;;32.40;49.70;;;;;;4906877;29;20197;-74
2023/09/19 14:58:44;;;;;;;2.30;0.70;;;32.40;50.00;;;;;;4906331;29;20037;-77
2023/09/19 15:01:12;;;;;;;2.33;0.70;;;32.60;49.60;;;;;;4907054;29;20029;-78
2023/09/19 15:03:40;;;;;;;1.75;0.80;;;32.60;50.30;;;;;;4906283;29;20200;-77
2023/09/19 15:06:19;;;;;;;2.60;0.60;;;32.20;49.80;;;;;;4907283;29;20044;-77
2023/09/19 15:08:47;;;;;;;2.35;0.57;;;31.80;50.10;;;;;;4915819;29;20027;-75
2023/09/19 15:11:20;;;;;;;1.75;0.60;;;30.90;50.90;;;;;;4890334;29;20234;-81
2023/09/19 15:13:47;;;;;;;2.25;0.70;;;31.50;51.10;;;;;;4906637;29;20199;-77
2023/09/19 15:16:13;;;;;;;2.20;0.63;;;31.90;50.50;;;;;;4890565;29;20044;-78
2023/09/19 15:18:44;;;;;;;1.70;0.70;;;31.30;51.30;;;;;;4906428;29;20290;-80
2023/09/19 15:21:11;;;;;;;2.47;0.55;;;30.80;52.30;;;;;;4874944;29;20033;-76
2023/09/19 15:23:39;;;;;;;2.45;0.77;;;30.30;52.00;;;;;;4874722;29;20092;-77
2023/09/19 15:26:11;;;;;;;2.17;0.77;;;29.90;52.60;;;;;;4890103;29;20043;-80
2023/09/19 15:28:37;;;;;;;3.05;0.60;;;29.60;53.40;;;;;;4890265;29;20028;-80
2023/09/19 15:31:10;;;;;;;3.35;0.60;;;29.50;53.30;;;;;;4889984;29;20041;-79
2023/09/19 15:33:39;;;;;;;2.75;0.70;;;29.30;54.80;;;;;;4889966;29;20067;-77
2023/09/19 15:36:13;;;;;;;1.42;0.50;;;29.20;53.30;;;;;;4906920;29;20036;-76
2023/09/19 15:39:02;;;;;;;2.05;0.68;;;30.20;52.90;;;;;;4906633;29;20092;-77
2023/09/19 15:41:39;;;;;;;1.40;0.50;;;30.90;51.40;;;;;;4906845;29;20374;-78
2023/09/19 15:44:13;;;;;;;1.30;0.40;;;31.50;51.00;;;;;;4906939;29;20051;-75
2023/09/19 15:46:39;;;;;;;2.08;0.32;;;32.10;50.30;;;;;;4896293;29;20036;-77
2023/09/19 15:49:04;;;;;;;2.33;0.70;;;32.10;50.20;;;;;;4906748;29;20370;-78
2023/09/19 15:51:30;;;;;;;2.97;0.65;;;30.00;51.80;;;;;;4906764;29;20392;-78
2023/09/19 15:53:56;;;;;;;1.85;0.60;;;29.10;53.70;;;;;;4906772;29;20073;-76
2023/09/19 15:56:23;;;;;;;2.33;0.50;;;28.40;54.20;;;;;;4906910;29;20024;-78
2023/09/19 15:58:54;;;;;;;1.90;0.60;;;28.30;54.80;;;;;;4890954;29;20107;-75
2023/09/19 16:01:20;;;;;;;2.03;0.57;;;28.50;54.70;;;;;;4890329;29;20036;-78
2023/09/19 16:03:54;;;;;;;2.50;1.05;;;29.40;54.30;;;;;;4906336;29;20036;-76
2023/09/19 16:06:27;;;;;;;1.90;0.55;;;30.00;53.50;;;;;;4909375;29;20226;-75
2023/09/19 16:08:56;;;;;;;1.48;0.50;;;30.80;52.70;;;;;;4912545;29;20036;-75
2023/09/19 16:11:22;;;;;;;2.10;0.88;;;30.60;52.80;;;;;;4910945;29;20072;-77
2023/09/19 16:13:50;;;;;;;1.48;0.40;;;31.10;51.70;;;;;;4893718;29;20035;-76
2023/09/19 16:16:17;;;;;;;1.77;0.55;;;31.00;51.40;;;;;;4917129;29;20044;-76
2023/09/19 16:18:47;;;;;;;1.88;0.60;;;31.00;52.20;;;;;;4918985;29;20053;-74
2023/09/19 16:21:14;;;;;;;2.65;0.60;;;30.70;51.90;;;;;;4908786;29;20094;-75
2023/09/19 16:23:39;;;;;;;2.05;0.80;;;29.90;53.60;;;;;;4934685;29;20032;-74
2023/09/19 16:26:09;;;;;;;1.98;0.73;;;28.90;53.50;;;;;;4912074;29;20259;-76
2023/09/19 16:28:38;;;;;;;1.33;0.50;;;28.50;55.50;;;;;;4929145;29;20023;-76
2023/09/19 16:31:06;;;;;;;1.40;0.60;;;28.20;55.10;;;;;;4936000;29;20080;-76
2023/09/19 16:33:33;;;;;;;3.03;0.73;;;27.70;56.30;;;;;;4937901;29;20059;-76
2023/09/19 16:36:00;;;;;;;1.35;0.52;;;27.30;56.80;;;;;;4940925;29;20026;-74
2023/09/19 16:38:27;;;;;;;2.70;0.60;;;27.10;57.70;;;;;;4919528;29;20080;-76
2023/09/19 16:40:54;;;;;;;2.22;0.70;;;26.30;58.50;;;;;;4929815;29;20028;-78
2023/09/19 16:43:22;;;;;;;2.83;0.75;;;25.60;59.60;;;;;;4939797;29;20047;-79
2023/09/19 16:46:16;;;;;;;2.40;0.70;;;25.30;60.90;;;;;;4908952;29;20097;-77
2023/09/19 16:48:46;;;;;;;2.42;0.63;;;25.00;61.90;;;;;;4870756;29;20382;-77
2023/09/19 16:51:13;;;;;;;3.33;0.75;;;24.80;61.90;;;;;;4871281;29;20104;-79
2023/09/19 16:53:45;;;;;;;;;;;24.60;62.50;;;;;;4871328;29;20045;-79
2023/09/19 16:56:15;;;;;;;2.10;0.55;;;24.40;63.00;;;;;;4868758;29;19965;-79
2023/09/19 16:58:43;;;;;;;3.25;0.60;;;24.20;63.60;;;;;;4889247;29;20043;-76
2023/09/19 17:01:13;;;;;;;1.55;0.50;;;24.10;64.20;;;;;;4889768;29;20025;-77
2023/09/19 17:03:40;;;;;;;1.80;0.70;;;24.00;64.30;;;;;;4878034;29;20088;-77
2023/09/19 17:06:11;;;;;;;1.75;0.60;;;23.80;65.50;;;;;;4871008;29;20049;-77
2023/09/19 17:08:38;;;;;;;2.72;0.80;;;23.80;64.90;;;;;;4882742;29;20244;-77
2023/09/19 17:11:05;;;;;;;2.28;0.65;;;23.70;65.20;;;;;;4889829;29;20037;-77
2023/09/19 17:13:33;;;;;;;2.05;0.60;;;23.50;65.80;;;;;;4889145;29;20037;-79
2023/09/19 17:16:12;;;;;;;2.38;0.70;;;23.30;66.30;;;;;;4889829;29;20036;-78
2023/09/19 17:18:42;;;;;;;2.08;0.73;;;23.30;66.50;;;;;;4889212;29;20051;-79
2023/09/19 17:21:35;;;;;;;3.75;1.48;;;23.20;67.00;;;;;;4889489;29;20037;-79
2023/09/19 17:24:18;;;;;;;2.40;0.82;;;23.10;67.90;;;;;;4888822;29;20096;-78
2023/09/19 17:26:47;;;;;;;3.47;0.70;;;22.90;67.90;;;;;;4906375;29;20043;-78
2023/09/19 17:30:39;;;;;;;1.92;0.85;;;22.80;68.60;;;;;;4896731;29;20099;-77
2023/09/19 17:33:08;;;;;;;2.42;0.75;;;22.80;69.20;;;;;;4836798;29;20030;-80
2023/09/19 17:35:34;;;;;;;;;;;22.60;69.50;;;;;;4887657;29;20032;-79
2023/09/19 17:37:59;;;;;;;3.00;0.90;;;22.40;70.40;;;;;;4895574;29;19993;-78
2023/09/19 17:40:25;;;;;;;1.70;0.75;;;22.30;71.20;;;;;;4895656;29;20023;-77
2023/09/19 17:42:51;;;;;;;2.50;0.70;;;22.10;72.20;;;;;;4910114;29;20048;-78
2023/09/19 17:45:23;;;;;;;3.90;1.00;;;21.90;72.70;;;;;;4925565;29;20043;-79
2023/09/19 17:47:55;;;;;;;3.90;0.93;;;21.80;73.50;;;;;;4909133;29;20028;-82
2023/09/19 17:50:24;;;;;;;2.67;0.90;;;21.70;73.90;;;;;;4892146;29;20028;-82
2023/09/19 17:53:13;;;;;;;3.70;1.48;;;21.50;74.40;;;;;;4908781;29;20052;-78
2023/09/19 17:55:41;;;;;;;4.15;1.30;;;21.40;74.60;;;;;;4872311;29;20059;-80
2023/09/19 17:58:54;;;;;;;3.40;1.40;;;21.30;75.30;;;;;;4908930;29;20035;-80
2023/09/19 18:01:20;;;;;;;3.05;1.10;;;21.20;76.00;;;;;;4893449;29;20076;-79
2023/09/19 18:03:57;;;;;;;3.33;1.73;;;21.00;76.60;;;;;;4883968;29;20040;-81
2023/09/19 18:06:37;;;;;;;4.07;1.60;;;20.90;77.70;;;;;;4893160;29;20028;-80
2023/09/19 18:09:47;;;;;;;3.97;1.83;;;20.80;78.30;;;;;;4896793;29;20061;-83
2023/09/19 18:12:13;;;;;;;3.90;1.55;;;20.60;78.70;;;;;;4891658;29;20039;-81
2023/09/19 18:14:41;;;;;;;4.78;1.48;;;20.60;79.10;;;;;;4891129;29;20036;-80
2023/09/19 18:17:19;;;;;;;3.22;1.38;;;20.60;79.30;;;;;;4880461;29;20020;-79
2023/09/19 18:19:58;;;;;;;2.72;1.40;;;20.60;79.40;;;;;;4910414;29;20051;-79
2023/09/19 18:22:27;;;;;;;4.20;1.50;;;20.60;79.50;;;;;;4909994;29;20040;-80
2023/09/19 18:24:56;;;;;;;3.60;1.60;;;20.50;79.40;;;;;;4910768;29;20032;-80
2023/09/19 18:28:00;;;;;;;4.68;1.60;;;20.40;80.30;;;;;;4909312;29;20107;-79
2023/09/19 18:30:34;;;;;;;4.75;1.50;;;20.30;80.30;;;;;;4890558;29;20047;-80
2023/09/19 18:33:08;;;;;;;3.78;1.65;;;20.20;80.40;;;;;;4910352;29;20048;-80
2023/09/19 18:35:43;;;;;;;3.58;1.35;;;20.20;80.50;;;;;;4927297;29;20032;-82
2023/09/19 18:38:13;;;;;;;3.88;1.90;;;20.20;81.20;;;;;;4910902;29;20036;-83
2023/09/19 18:40:50;;;;;;;3.40;1.67;;;20.10;81.20;;;;;;4894958;29;20032;-84
2023/09/19 18:43:19;;;;;;;3.90;1.75;;;20.10;81.20;;;;;;4909556;29;20079;-79
2023/09/19 18:46:20;;;;;;;5.05;1.88;;;20.00;81.40;;;;;;4914031;29;20031;-79
2023/09/19 18:48:59;;;;;;;5.18;1.77;;;20.00;81.50;;;;;;4894473;29;20032;-79
2023/09/19 18:51:45;;;;;;;4.63;2.33;;;19.90;82.00;;;;;;4902763;29;20052;-80
2023/09/19 18:54:26;;;;;;;4.07;1.55;;;19.80;82.10;;;;;;4891732;29;20291;-80
2023/09/19 18:56:58;;;;;;;3.92;1.75;;;19.80;82.30;;;;;;4875721;29;20032;-80